Terminal Aerodrome Forecast
Issued by NWS Cleveland, OH

Home | Current Version | Previous Version | Graphics & Text | Print | Product List | Glossary On
Versions: 1 2 3 4 5 6 7 8 9 10 11 12 13 14 15 16 17 18 19 20 21 22 23 24 25 26
609
FTUS41 KCLE 212102 AAA
TAFCLE
TAF AMD
KCLE 212102Z 2121/2224 36007KT P6SM BKN200
     FM220300 14004KT P6SM BKN200
     FM221200 18008KT P6SM VCSH BKN040 OVC100
     FM221800 21014G22KT P6SM BKN100=

USA.gov is the U.S. government's official web portal to all federal, state and local government web resources and services.